CheckWX is a tool to help pilots better visualize weather data.  It is not intended as a substitute for an official pre-flight weather briefing.

00:36:38 UTC

KTYR TAF
Tyler Pounds Regional Airport
Tyler, Texas, USA
KTYR 262340Z 2700/2724 03009KT P6SM SKC FM270300 09004KT P6SM SKC FM271500 13008KT P6SM BKN250 FM272100 16009KT P6SM SKC

Mar-27@
00:00 UTC

Mar-27 @ 00:00 UTC

Mar-27@
03:00 UTC

Mar-27 @ 03:00 UTC

KTYR 262340Z 2700/2724 03009KT P6SM SKC
Wind
  • 030° at 9 KTS
Cloud Levels
  • Clear skies

Mar-27@
03:00 UTC

Mar-27 @ 03:00 UTC

Mar-27@
15:00 UTC

Mar-27 @ 15:00 UTC

FM270300 09004KT P6SM SKC

From

From Standard forecast or significant change

Wind
  • 090° at 4 KTS
Cloud Levels
  • Clear skies

Mar-27@
15:00 UTC

Mar-27 @ 15:00 UTC

Mar-27@
21:00 UTC

Mar-27 @ 21:00 UTC

FM271500 13008KT P6SM BKN250

From

From Standard forecast or significant change

Wind
  • 130° at 8 KTS
Cloud Levels
  • Broken at 25,000' AGL

Mar-27@
21:00 UTC

Mar-27 @ 21:00 UTC

Mar-28@
00:00 UTC

Mar-28 @ 00:00 UTC

FM272100 16009KT P6SM SKC

From

From Standard forecast or significant change

Wind
  • 160° at 9 KTS
Cloud Levels
  • Clear skies